Terminal Aerodrome Forecast
Issued by NWS

Home | Current Version | Previous Version | Text Only | Print | Product List | Glossary On
Versions: 1 2 3 4 5 6 7 8 9 10 11 12
000
FTUS43 KDMX 182324
TAFOTM
TAF
KOTM 182324Z 1900/1924 20006KT P6SM FEW250
     FM190700 VRB03KT P6SM SKC
     FM191700 14007KT P6SM SKC=

USA.gov is the U.S. government's official web portal to all federal, state and local government web resources and services.